Ocean Majesty — CQSC — position and weather

sailwx.info

Track history (hours):
 
Tides and Currents Weather Stations Pressure Air Temp Water Temp Dewpoint Dewpoint Depression Visibility Wind Speed Wind Dir Waves Ship Positions

Ocean Majesty

Last reported at 2016-Oct-06 10:13 UTC. Time now 2016-Dec-08 22:08 UTC.
Position N 37°38' E 024°04'.
Warning: this ship's position is months out of date.

Length 136 m; draft 6.3 m.

Type: Passenger vessel. MMSI: 255717000.

Date/timePositionNaut miles runAvg speedWind from/ knotsBaromVisibWave heightAir tempDewpointWater temp
2016-Oct-06 10:13N 37°38' E 024°04'30 5.2
2016-Oct-06 04:31N 37°55' E 023°34'0 0.0
2016-Oct-06 03:28N 37°55' E 023°34'0 0.0
2016-Oct-06 02:31N 37°55' E 023°34'0 0.0
2016-Oct-06 01:25N 37°55' E 023°34'7 8.1
2016-Oct-06 00:33N 37°49' E 023°40'1413.5
2016-Oct-05 23:33N 37°37' E 023°44'59911.7
2016-Oct-03 20:33N 44°16' E 013°53'1414.5
2016-Oct-03 19:33N 44°28' E 013°42'2814.2
2016-Oct-03 17:33N 44°52' E 013°20'55 9.2
2016-Oct-03 11:33N 45°26' E 012°19'0 0.0
2016-Oct-03 10:33N 45°26' E 012°19'0 0.0
2016-Oct-03 09:33N 45°26' E 012°19'2 0.5
2016-Oct-03 05:33N 45°26' E 012°21'8 7.6
2016-Oct-03 04:33N 45°23' E 012°32'  
Track history (hours):
 
Tides and Currents Weather Stations Pressure Air Temp Water Temp Dewpoint Dewpoint Depression Visibility Wind Speed Wind Dir Waves Ship Positions

Ocean Majesty

Last reported at 2016-Oct-06 10:13 UTC. Time now 2016-Dec-08 22:08 UTC.
Position N 37°38' E 024°04'.
Warning: this ship's position is months out of date.

Length 136 m; draft 6.3 m.

Type: Passenger vessel. MMSI: 255717000.

Date/timePositionNaut miles runAvg speedWind from/ knotsBaromVisibWave heightAir tempDewpointWater temp
2016-Oct-06 10:13N 37°38' E 024°04'30 5.2
2016-Oct-06 04:31N 37°55' E 023°34'0 0.0
2016-Oct-06 03:28N 37°55' E 023°34'0 0.0
2016-Oct-06 02:31N 37°55' E 023°34'0 0.0
2016-Oct-06 01:25N 37°55' E 023°34'7 8.1
2016-Oct-06 00:33N 37°49' E 023°40'1413.5
2016-Oct-05 23:33N 37°37' E 023°44'59911.7
2016-Oct-03 20:33N 44°16' E 013°53'1414.5
2016-Oct-03 19:33N 44°28' E 013°42'2814.2
2016-Oct-03 17:33N 44°52' E 013°20'55 9.2
2016-Oct-03 11:33N 45°26' E 012°19'0 0.0
2016-Oct-03 10:33N 45°26' E 012°19'0 0.0
2016-Oct-03 09:33N 45°26' E 012°19'2 0.5
2016-Oct-03 05:33N 45°26' E 012°21'8 7.6
2016-Oct-03 04:33N 45°23' E 012°32'  

Dump ship's entire track history